Frost Town, Louisiana
Current Conditions -  °F | °C
As of 2:55 PM on Tuesday 25 Nov 2014 (Local Time) from KRSN Reporting Station
Clear Clear  
Wind Chill: 56°   Ceiling: Unl
Heat Index: 56°   Visibility: 10mi
Dew Point: 27°   Wind: 3mph
Humidity: 32%   Direction: 310°NW
Pressure: 30.23"   Gusts: NA
Location:  32.6533°N, 92.3683°W
Report Text: KRSN 252055Z AUTO 31003KT 10SM CLR 13/M03 A3023 RMK AO2 T01341030
Loading
Personal Weather Stations






























Interactive Weather Map New forecast layout! Learn more

10-Day Weather Forecast

Advertisements
Track Severe Weather on mobile